createdAt,value
2018-01-06T00:01:53.959Z,3.10
2018-01-06T00:04:21.394Z,2.80
2018-01-06T00:06:48.858Z,3.33
2018-01-06T00:09:16.372Z,3.03
2018-01-06T00:11:43.814Z,2.90
2018-01-06T00:14:11.243Z,2.63
2018-01-06T00:16:39.505Z,2.57
2018-01-06T00:19:07.089Z,2.90
2018-01-06T00:21:58.233Z,2.50
2018-01-06T00:24:25.680Z,2.90
2018-01-06T00:26:53.143Z,2.70
2018-01-06T00:29:20.629Z,2.87
2018-01-06T00:31:48.147Z,2.50
2018-01-06T00:34:15.575Z,3.30
2018-01-06T00:36:43.030Z,2.67
2018-01-06T00:39:10.491Z,2.77
2018-01-06T00:41:37.945Z,2.80
2018-01-06T00:44:05.387Z,2.87
2018-01-06T00:46:32.839Z,2.83
2018-01-06T00:49:00.315Z,2.57
2018-01-06T00:51:27.762Z,2.80
2018-01-06T00:53:55.230Z,2.80
2018-01-06T00:56:22.650Z,2.30
2018-01-06T00:58:50.082Z,2.57
2018-01-06T01:01:17.528Z,2.63
2018-01-06T01:03:44.978Z,2.83
2018-01-06T01:06:12.444Z,2.60
2018-01-06T01:08:39.989Z,2.70
2018-01-06T01:11:07.421Z,2.40
2018-01-06T01:13:34.915Z,2.60
2018-01-06T01:16:02.330Z,2.70
2018-01-06T01:18:29.769Z,2.40
2018-01-06T01:20:57.196Z,2.80
2018-01-06T01:23:24.655Z,2.60
2018-01-06T01:25:52.140Z,3.13
2018-01-06T01:28:19.566Z,2.40
2018-01-06T01:30:47.310Z,2.67
2018-01-06T01:33:14.756Z,2.70
2018-01-06T01:35:42.205Z,2.73
2018-01-06T01:38:09.666Z,2.73
2018-01-06T01:40:37.104Z,2.90
2018-01-06T01:43:04.569Z,2.87
2018-01-06T01:45:31.997Z,2.77
2018-01-06T01:47:59.459Z,2.70
2018-01-06T01:50:26.906Z,2.70
2018-01-06T01:52:54.329Z,2.43
2018-01-06T01:55:21.822Z,2.97
2018-01-06T01:57:49.258Z,2.90
2018-01-06T02:00:16.764Z,2.60
2018-01-06T02:02:44.211Z,2.70
2018-01-06T02:05:11.671Z,2.80
2018-01-06T02:07:39.225Z,2.50
2018-01-06T02:10:06.699Z,3.13
2018-01-06T02:12:34.280Z,2.43
2018-01-06T02:15:01.745Z,3.13
2018-01-06T02:17:29.185Z,2.80
2018-01-06T02:19:56.623Z,2.60
2018-01-06T02:22:24.096Z,2.93
2018-01-06T02:24:51.609Z,3.00
2018-01-06T02:27:19.056Z,2.80
2018-01-06T02:29:46.502Z,3.10
2018-01-06T02:32:14.204Z,3.00
2018-01-06T02:34:41.676Z,3.10
2018-01-06T02:37:09.117Z,3.03
2018-01-06T02:39:36.572Z,3.63
2018-01-06T02:42:04.016Z,2.90
2018-01-06T02:44:31.493Z,3.10
2018-01-06T02:46:58.975Z,2.80
2018-01-06T02:49:26.420Z,3.00
2018-01-06T02:51:53.876Z,3.13
2018-01-06T02:54:22.316Z,3.00
2018-01-06T02:56:49.824Z,3.47
2018-01-06T02:59:17.278Z,3.40
2018-01-06T03:01:44.719Z,3.40
2018-01-06T03:04:12.144Z,3.20
2018-01-06T03:06:39.631Z,3.10
2018-01-06T03:09:07.057Z,3.40
2018-01-06T03:11:34.533Z,3.30
2018-01-06T03:14:01.992Z,3.40
2018-01-06T03:16:30.181Z,3.50
2018-01-06T03:18:57.665Z,3.60
2018-01-06T03:21:25.120Z,3.43
2018-01-06T03:23:52.557Z,3.40
2018-01-06T03:26:19.999Z,3.30
2018-01-06T03:28:47.476Z,3.30
2018-01-06T03:31:14.956Z,3.57
2018-01-06T03:33:42.428Z,3.50
2018-01-06T03:36:09.886Z,3.40
2018-01-06T03:38:37.597Z,3.67
2018-01-06T03:41:05.691Z,3.53
2018-01-06T03:43:33.222Z,3.50
2018-01-06T03:46:00.743Z,3.10
2018-01-06T03:48:28.175Z,3.60
2018-01-06T03:50:55.619Z,4.20
2018-01-06T03:53:23.107Z,3.50
2018-01-06T03:55:50.552Z,3.67
2018-01-06T03:58:17.999Z,3.30
2018-01-06T04:00:45.460Z,3.30
2018-01-06T04:03:12.902Z,3.23
2018-01-06T04:05:40.354Z,3.00
2018-01-06T04:08:07.828Z,3.10
2018-01-06T04:10:35.972Z,3.57
2018-01-06T04:13:03.461Z,3.13
2018-01-06T04:15:30.937Z,3.53
2018-01-06T04:17:58.432Z,3.23
2018-01-06T04:20:25.854Z,3.50
2018-01-06T04:22:53.335Z,3.37
2018-01-06T04:25:21.679Z,3.60
2018-01-06T04:27:49.191Z,3.77
2018-01-06T04:30:18.747Z,4.00
2018-01-06T04:32:46.231Z,3.83
2018-01-06T04:35:14.396Z,3.80
2018-01-06T04:37:41.907Z,3.67
2018-01-06T04:40:09.455Z,3.77
2018-01-06T04:42:36.916Z,3.77
2018-01-06T04:45:04.365Z,3.97
2018-01-06T04:47:31.849Z,3.60
2018-01-06T04:50:00.228Z,3.43
2018-01-06T04:52:27.672Z,4.70
2018-01-06T04:54:55.984Z,3.87
2018-01-06T04:57:24.018Z,3.53
2018-01-06T04:59:51.533Z,3.80
2018-01-06T05:02:18.960Z,3.27
2018-01-06T05:04:46.437Z,3.80
2018-01-06T05:07:13.870Z,3.90
2018-01-06T05:09:41.318Z,3.50
2018-01-06T05:12:08.744Z,3.70
2018-01-06T05:14:36.225Z,3.70
2018-01-06T05:17:03.645Z,4.40
2018-01-06T05:19:31.096Z,3.50
2018-01-06T05:21:58.798Z,3.87
2018-01-06T05:24:27.135Z,3.40
2018-01-06T05:26:54.548Z,3.97
2018-01-06T05:29:21.991Z,3.33
2018-01-06T05:31:49.428Z,3.30
2018-01-06T05:34:16.881Z,3.30
2018-01-06T05:36:44.357Z,3.43
2018-01-06T05:39:11.829Z,3.50
2018-01-06T05:41:39.263Z,3.33
2018-01-06T05:44:06.724Z,3.50
2018-01-06T05:46:34.183Z,3.40
2018-01-06T05:49:01.644Z,3.20
2018-01-06T05:51:29.258Z,3.47
2018-01-06T05:53:56.680Z,3.27
2018-01-06T05:56:25.025Z,3.83
2018-01-06T05:58:52.487Z,3.00
2018-01-06T06:01:19.908Z,3.40
2018-01-06T06:03:47.365Z,3.73
2018-01-06T06:06:14.828Z,3.57
2018-01-06T06:08:42.306Z,3.60
2018-01-06T06:11:09.773Z,3.57
2018-01-06T06:13:37.228Z,3.50
2018-01-06T06:16:04.729Z,3.40
2018-01-06T06:18:32.206Z,3.33
2018-01-06T06:20:59.890Z,3.80
2018-01-06T06:23:27.433Z,3.83
2018-01-06T06:25:54.926Z,3.77
2018-01-06T06:28:22.381Z,3.30
2018-01-06T06:30:49.825Z,3.27
2018-01-06T06:33:17.282Z,3.80
2018-01-06T06:35:44.696Z,3.47
2018-01-06T06:38:12.207Z,4.10
2018-01-06T06:40:39.698Z,3.83
2018-01-06T06:43:07.159Z,3.83
2018-01-06T06:45:34.612Z,3.43
2018-01-06T06:48:02.087Z,4.43
2018-01-06T06:50:29.529Z,3.87
2018-01-06T06:52:57.094Z,4.03
2018-01-06T06:55:24.528Z,4.67
2018-01-06T06:57:51.983Z,3.60
2018-01-06T07:00:24.468Z,4.00
2018-01-06T07:02:51.954Z,4.00
2018-01-06T07:05:19.388Z,4.60
2018-01-06T07:07:46.843Z,3.97
2018-01-06T07:10:14.349Z,3.87
2018-01-06T07:12:41.848Z,4.40
2018-01-06T07:15:09.310Z,4.70
2018-01-06T07:17:36.760Z,4.10
2018-01-06T07:20:04.214Z,4.27
2018-01-06T07:22:31.693Z,4.10
2018-01-06T07:24:59.132Z,4.10
2018-01-06T07:27:26.652Z,4.50
2018-01-06T07:29:54.102Z,4.23
2018-01-06T07:32:21.925Z,3.93
2018-01-06T07:34:49.381Z,4.63
2018-01-06T07:37:16.836Z,4.23
2018-01-06T07:39:44.302Z,4.73
2018-01-06T07:42:11.829Z,4.60
2018-01-06T07:44:39.281Z,3.93
2018-01-06T07:47:06.797Z,4.87
2018-01-06T07:49:34.223Z,4.60
2018-01-06T07:52:01.714Z,4.00
2018-01-06T07:54:29.217Z,4.37
2018-01-06T07:56:56.731Z,4.50
2018-01-06T07:59:24.164Z,4.50
2018-01-06T08:01:51.628Z,3.70
2018-01-06T08:04:19.157Z,3.97
2018-01-06T08:06:46.592Z,4.93
2018-01-06T08:09:14.009Z,4.50
2018-01-06T08:11:41.516Z,3.87
2018-01-06T08:14:09.382Z,4.50
2018-01-06T08:16:36.846Z,3.87
2018-01-06T08:19:04.338Z,3.70
2018-01-06T08:21:31.862Z,4.43
2018-01-06T08:23:59.345Z,4.13
2018-01-06T08:26:26.806Z,4.20
2018-01-06T08:28:54.592Z,4.80
2018-01-06T08:31:23.236Z,4.53
2018-01-06T08:33:51.019Z,4.60
2018-01-06T08:36:19.423Z,6.13
2018-01-06T08:38:47.991Z,5.67
2018-01-06T08:44:09.008Z,6.53
2018-01-06T08:46:36.543Z,6.83
2018-01-06T08:49:04.114Z,5.40
2018-01-06T08:51:32.419Z,4.77
2018-01-06T08:53:59.889Z,5.47
2018-01-06T08:56:27.331Z,5.10
2018-01-06T08:58:55.611Z,4.87
2018-01-06T09:01:23.133Z,5.47
2018-01-06T09:03:50.649Z,5.73
2018-01-06T09:06:18.142Z,4.90
2018-01-06T09:08:45.630Z,5.80
2018-01-06T09:11:13.104Z,5.07
2018-01-06T09:13:40.656Z,5.17
2018-01-06T09:16:08.152Z,4.10
2018-01-06T09:18:35.646Z,4.67
2018-01-06T09:21:03.204Z,5.10
2018-01-06T09:23:30.735Z,5.30
2018-01-06T09:25:58.263Z,5.60
2018-01-06T09:28:25.893Z,4.93
2018-01-06T09:30:53.375Z,4.83
2018-01-06T09:33:21.088Z,5.20
2018-01-06T09:35:48.582Z,6.20
2018-01-06T09:38:16.183Z,6.03
2018-01-06T09:40:43.613Z,6.83
2018-01-06T09:43:11.086Z,7.00
2018-01-06T09:45:38.601Z,7.13
2018-01-06T09:48:06.134Z,6.73
2018-01-06T09:50:33.873Z,7.40
2018-01-06T09:53:01.560Z,6.83
2018-01-06T09:55:29.004Z,6.77
2018-01-06T09:57:56.498Z,6.50
2018-01-06T10:00:23.943Z,6.70
2018-01-06T10:02:51.399Z,7.17
2018-01-06T10:05:18.871Z,6.73
2018-01-06T10:07:46.814Z,7.30
2018-01-06T10:10:14.277Z,7.03
2018-01-06T10:12:41.761Z,7.40
2018-01-06T10:15:09.228Z,7.77
2018-01-06T10:17:36.694Z,7.73
2018-01-06T10:20:04.195Z,8.23
2018-01-06T10:22:31.678Z,8.73
2018-01-06T10:24:59.281Z,8.60
2018-01-06T10:27:26.733Z,7.53
2018-01-06T10:29:54.237Z,8.80
2018-01-06T10:32:21.773Z,7.80
2018-01-06T10:34:49.227Z,7.57
2018-01-06T10:37:16.774Z,8.00
2018-01-06T10:39:44.446Z,6.80
2018-01-06T10:42:11.938Z,6.50
2018-01-06T10:44:39.407Z,7.27
2018-01-06T10:47:06.913Z,7.43
2018-01-06T10:49:34.476Z,6.43
2018-01-06T10:52:01.962Z,6.53
2018-01-06T10:54:29.421Z,6.40
2018-01-06T10:56:56.920Z,7.27
2018-01-06T10:59:24.382Z,6.80
2018-01-06T11:01:57.418Z,6.90
2018-01-06T11:04:24.879Z,6.87
2018-01-06T11:06:52.449Z,6.50
2018-01-06T11:09:19.986Z,7.07
2018-01-06T11:11:47.431Z,5.93
2018-01-06T11:14:14.936Z,6.93
2018-01-06T11:16:42.374Z,6.67
2018-01-06T11:19:10.671Z,6.07
2018-01-06T11:21:38.146Z,10.63
2018-01-06T11:24:05.599Z,6.17
2018-01-06T11:26:33.085Z,5.93
2018-01-06T11:29:00.537Z,5.33
2018-01-06T11:31:27.987Z,5.07
2018-01-06T11:33:55.428Z,4.53
2018-01-06T11:36:22.910Z,5.07
2018-01-06T11:38:50.440Z,5.40
2018-01-06T11:41:17.920Z,4.70
2018-01-06T11:43:45.398Z,4.60
2018-01-06T11:46:12.855Z,4.23
2018-01-06T11:48:40.386Z,4.53
2018-01-06T11:51:07.902Z,5.03
2018-01-06T11:53:35.358Z,4.80
2018-01-06T11:56:02.796Z,5.23
2018-01-06T11:58:30.277Z,5.13
2018-01-06T12:00:57.724Z,4.60
2018-01-06T12:03:25.204Z,4.60
2018-01-06T12:05:52.774Z,4.57
2018-01-06T12:08:20.257Z,5.30
2018-01-06T12:10:47.761Z,4.10
2018-01-06T12:13:15.240Z,4.43
2018-01-06T12:15:42.928Z,4.50
2018-01-06T12:18:10.543Z,4.63
2018-01-06T12:20:38.726Z,3.77
2018-01-06T12:23:06.322Z,6.93
2018-01-06T12:25:33.870Z,5.67
2018-01-06T12:28:01.447Z,5.30
2018-01-06T12:30:28.930Z,4.73
2018-01-06T12:32:56.432Z,4.00
2018-01-06T12:35:23.925Z,4.47
2018-01-06T12:37:51.470Z,3.83
2018-01-06T12:40:18.970Z,4.37
2018-01-06T12:42:46.442Z,4.30
2018-01-06T12:45:13.876Z,3.83
2018-01-06T12:47:41.563Z,4.20
2018-01-06T12:50:09.031Z,4.27
2018-01-06T12:52:36.556Z,3.73
2018-01-06T12:55:04.043Z,4.07
2018-01-06T12:57:31.515Z,4.03
2018-01-06T13:00:03.945Z,4.40
2018-01-06T13:02:33.075Z,3.83
2018-01-06T13:05:00.517Z,3.70
2018-01-06T13:07:28.004Z,3.83
2018-01-06T13:09:55.501Z,3.40
2018-01-06T13:12:23.021Z,3.37
2018-01-06T13:14:50.515Z,3.03
2018-01-06T13:17:18.005Z,3.23
2018-01-06T13:19:45.510Z,3.27
2018-01-06T13:22:12.947Z,2.83
2018-01-06T13:24:40.425Z,3.67
2018-01-06T13:27:07.862Z,3.67
2018-01-06T13:29:35.345Z,3.53
2018-01-06T13:32:02.848Z,3.27
2018-01-06T13:34:30.532Z,3.50
2018-01-06T13:36:58.044Z,3.30
2018-01-06T13:39:25.530Z,3.37
2018-01-06T13:44:46.158Z,4.03
2018-01-06T13:47:13.609Z,3.90
2018-01-06T13:49:41.092Z,3.67
2018-01-06T13:52:08.537Z,4.03
2018-01-06T13:54:36.002Z,3.87
2018-01-06T13:57:03.508Z,3.60
2018-01-06T13:59:30.968Z,3.57
2018-01-06T14:01:58.426Z,3.90
2018-01-06T14:04:25.870Z,4.13
2018-01-06T14:06:53.368Z,3.90
2018-01-06T14:09:20.832Z,4.67
2018-01-06T14:11:48.632Z,4.77
2018-01-06T14:14:16.073Z,4.67
2018-01-06T14:16:43.547Z,5.30
2018-01-06T14:19:11.066Z,5.20
2018-01-06T14:21:38.523Z,5.53
2018-01-06T14:24:05.985Z,5.70
2018-01-06T14:26:33.445Z,6.00
2018-01-06T14:29:00.917Z,5.70
2018-01-06T14:31:28.364Z,5.70
2018-01-06T14:33:55.800Z,5.60
2018-01-06T14:36:23.264Z,6.10
2018-01-06T14:38:52.399Z,5.83
2018-01-06T14:41:19.948Z,6.30
2018-01-06T14:43:47.473Z,6.47
2018-01-06T14:46:15.048Z,6.40
2018-01-06T14:48:43.217Z,6.30
2018-01-06T14:51:21.355Z,6.03
2018-01-06T14:53:49.016Z,6.20
2018-01-06T14:56:17.577Z,6.40
2018-01-06T14:58:45.926Z,6.67
2018-01-06T15:01:14.049Z,6.70
2018-01-06T15:03:42.538Z,6.70
2018-01-06T15:06:11.364Z,5.40
2018-01-06T15:08:39.322Z,5.00
2018-01-06T15:11:06.775Z,6.67
2018-01-06T15:13:34.662Z,6.43
2018-01-06T15:16:02.179Z,5.93
2018-01-06T15:18:30.545Z,6.23
2018-01-06T15:21:12.303Z,6.80
2018-01-06T15:23:39.806Z,6.43
2018-01-06T15:26:07.315Z,5.90
2018-01-06T15:28:34.888Z,5.77
2018-01-06T15:31:08.493Z,6.17
2018-01-06T15:33:36.758Z,6.33
2018-01-06T15:36:04.305Z,6.70
2018-01-06T15:38:31.842Z,7.07
2018-01-06T15:43:56.915Z,6.63
2018-01-06T15:46:24.394Z,6.17
2018-01-06T15:48:51.924Z,6.00
2018-01-06T15:51:20.309Z,7.00
2018-01-06T15:53:48.083Z,7.73
2018-01-06T15:56:15.593Z,7.93
2018-01-06T15:58:43.082Z,7.60
2018-01-06T16:01:10.592Z,7.67
2018-01-06T16:03:38.090Z,7.67
2018-01-06T16:06:05.607Z,9.17
2018-01-06T16:08:33.124Z,7.87
2018-01-06T16:11:05.600Z,8.93
2018-01-06T16:13:33.073Z,10.10
2018-01-06T16:16:00.583Z,9.23
2018-01-06T16:18:28.081Z,9.90
2018-01-06T16:20:56.465Z,10.00
2018-01-06T16:23:24.324Z,8.63
2018-01-06T16:25:51.781Z,8.70
2018-01-06T16:28:19.214Z,11.80
2018-01-06T16:30:46.702Z,15.47
2018-01-06T16:33:14.290Z,37.43
2018-01-06T16:35:41.807Z,80.73
2018-01-06T16:38:09.317Z,51.73
2018-01-06T16:40:37.166Z,38.37
2018-01-06T16:43:04.690Z,18.53
2018-01-06T16:45:32.165Z,14.93
2018-01-06T16:47:59.680Z,12.87
2018-01-06T16:50:27.167Z,12.00
2018-01-06T16:52:54.687Z,11.60
2018-01-06T16:55:22.142Z,11.57
2018-01-06T16:57:49.756Z,10.43
2018-01-06T17:00:18.117Z,9.93
2018-01-06T17:02:45.595Z,9.53
2018-01-06T17:05:13.117Z,8.67
2018-01-06T17:07:40.635Z,9.77
2018-01-06T17:10:13.030Z,11.13
2018-01-06T17:12:40.597Z,13.60
2018-01-06T17:15:08.047Z,11.53
2018-01-06T17:17:35.534Z,10.73
2018-01-06T17:20:03.068Z,11.17
2018-01-06T17:22:30.788Z,12.07
2018-01-06T17:24:58.304Z,11.57
2018-01-06T17:27:25.913Z,11.03
2018-01-06T17:29:53.373Z,11.27
2018-01-06T17:32:20.911Z,12.33
2018-01-06T17:34:48.438Z,12.67
2018-01-06T17:37:15.988Z,12.10
2018-01-06T17:39:43.472Z,11.50
2018-01-06T17:42:10.954Z,10.30
2018-01-06T17:44:38.517Z,10.43
2018-01-06T17:47:06.260Z,8.97
2018-01-06T17:49:35.587Z,8.67
2018-01-06T17:55:00.208Z,9.60
2018-01-06T17:57:29.399Z,11.10
2018-01-06T17:59:56.884Z,10.20
2018-01-06T18:02:24.808Z,10.30
2018-01-06T18:04:52.287Z,10.43
2018-01-06T18:07:19.749Z,11.17
2018-01-06T18:09:47.437Z,11.77
2018-01-06T18:12:15.072Z,11.37
2018-01-06T18:14:42.727Z,11.07
2018-01-06T18:17:10.231Z,10.43
2018-01-06T18:19:37.711Z,11.30
2018-01-06T18:22:05.539Z,11.60
2018-01-06T18:24:33.005Z,10.73
2018-01-06T18:27:00.483Z,10.93
2018-01-06T18:29:27.969Z,11.23
2018-01-06T18:31:56.250Z,10.80
2018-01-06T18:34:24.071Z,10.70
2018-01-06T18:36:51.606Z,11.00
2018-01-06T18:42:27.057Z,10.60
2018-01-06T18:44:55.093Z,11.47
2018-01-06T18:47:22.604Z,11.47
2018-01-06T18:49:50.097Z,11.07
2018-01-06T18:52:17.588Z,10.63
2018-01-06T18:54:45.163Z,11.23
2018-01-06T18:57:12.651Z,9.90
2018-01-06T18:59:40.402Z,10.30
2018-01-06T19:02:07.876Z,11.23
2018-01-06T19:04:35.534Z,9.60
2018-01-06T19:07:03.013Z,9.93
2018-01-06T19:09:30.596Z,9.73
2018-01-06T19:11:58.096Z,9.47
2018-01-06T19:14:26.612Z,9.17
2018-01-06T19:16:54.115Z,9.87
2018-01-06T19:19:21.655Z,8.87
2018-01-06T19:21:49.188Z,10.10
2018-01-06T19:24:16.700Z,10.60
2018-01-06T19:26:44.278Z,11.50
2018-01-06T19:29:11.765Z,12.07
2018-01-06T19:31:39.297Z,12.60
2018-01-06T19:34:06.783Z,11.50
2018-01-06T19:36:34.439Z,10.70
2018-01-06T19:39:01.919Z,10.30
2018-01-06T19:41:29.538Z,9.53
2018-01-06T19:43:57.138Z,8.87
2018-01-06T19:46:24.754Z,9.63
2018-01-06T19:48:52.335Z,9.83
2018-01-06T19:51:20.081Z,7.70
2018-01-06T19:53:47.590Z,7.23
2018-01-06T19:56:15.994Z,6.77
2018-01-06T19:58:43.551Z,6.77
2018-01-06T20:01:16.082Z,6.30
2018-01-06T20:03:43.589Z,6.50
2018-01-06T20:06:11.097Z,6.90
2018-01-06T20:08:38.607Z,6.20
2018-01-06T20:11:06.116Z,7.27
2018-01-06T20:13:33.575Z,7.30
2018-01-06T20:16:01.556Z,7.90
2018-01-06T20:18:29.030Z,7.07
2018-01-06T20:20:56.618Z,6.80
2018-01-06T20:23:24.965Z,6.67
2018-01-06T20:25:52.493Z,6.60
2018-01-06T20:28:20.198Z,6.53
2018-01-06T20:30:47.725Z,6.60
2018-01-06T20:33:15.187Z,6.60
2018-01-06T20:35:42.740Z,5.90
2018-01-06T20:38:10.224Z,6.43
2018-01-06T20:40:37.852Z,6.00
2018-01-06T20:43:05.375Z,6.00
2018-01-06T20:45:32.924Z,6.10
2018-01-06T20:48:00.387Z,6.00
2018-01-06T20:50:28.599Z,6.53
2018-01-06T20:52:56.131Z,5.97
2018-01-06T20:55:23.681Z,6.13
2018-01-06T20:57:51.216Z,6.40
2018-01-06T21:00:19.188Z,6.77
2018-01-06T21:02:47.044Z,6.20
2018-01-06T21:05:14.540Z,6.17
2018-01-06T21:07:42.089Z,7.57
2018-01-06T21:10:09.728Z,7.13
2018-01-06T21:12:37.467Z,7.73
2018-01-06T21:15:05.024Z,7.00
2018-01-06T21:17:32.623Z,7.60
2018-01-06T21:20:00.212Z,7.23
2018-01-06T21:22:27.715Z,6.63
2018-01-06T21:24:55.281Z,6.67
2018-01-06T21:27:22.895Z,7.07
2018-01-06T21:29:50.598Z,6.80
2018-01-06T21:32:18.083Z,6.73
2018-01-06T21:34:45.645Z,6.80
2018-01-06T21:37:13.203Z,7.17
2018-01-06T21:39:40.789Z,6.20
2018-01-06T21:42:08.429Z,6.57
2018-01-06T21:44:36.109Z,6.60
2018-01-06T21:47:03.694Z,6.97
2018-01-06T21:49:31.199Z,6.50
2018-01-06T21:51:58.726Z,7.33
2018-01-06T21:54:26.246Z,6.30
2018-01-06T21:56:53.799Z,6.43
2018-01-06T21:59:21.298Z,6.27
2018-01-06T22:01:50.634Z,6.60
2018-01-06T22:04:18.198Z,6.80
2018-01-06T22:06:45.677Z,6.17
2018-01-06T22:09:13.226Z,6.70
2018-01-06T22:11:40.735Z,6.27
2018-01-06T22:14:08.833Z,6.37
2018-01-06T22:16:36.386Z,6.10
2018-01-06T22:19:03.980Z,6.60
2018-01-06T22:21:31.528Z,6.20
2018-01-06T22:23:59.050Z,6.37
2018-01-06T22:26:26.532Z,6.10
2018-01-06T22:28:54.058Z,6.90
2018-01-06T22:34:13.887Z,6.37
2018-01-06T22:36:41.386Z,7.00
2018-01-06T22:39:08.911Z,6.67
2018-01-06T22:41:36.648Z,6.63
2018-01-06T22:44:04.194Z,6.50
2018-01-06T22:46:31.723Z,7.10
2018-01-06T22:48:59.228Z,5.93
2018-01-06T22:51:26.719Z,7.53
2018-01-06T22:53:54.218Z,7.00
2018-01-06T22:56:21.688Z,7.10
2018-01-06T22:58:49.166Z,6.73
2018-01-06T23:01:21.676Z,8.03
2018-01-06T23:03:49.195Z,8.07
2018-01-06T23:06:16.682Z,6.70
2018-01-06T23:08:44.194Z,8.70
2018-01-06T23:11:11.671Z,8.07
2018-01-06T23:13:39.209Z,8.03
2018-01-06T23:16:06.662Z,9.20
2018-01-06T23:18:34.155Z,8.60
2018-01-06T23:21:01.635Z,9.43
2018-01-06T23:23:29.158Z,8.77
2018-01-06T23:25:56.641Z,9.40
2018-01-06T23:28:24.175Z,9.67
2018-01-06T23:30:51.662Z,9.67
2018-01-06T23:33:19.169Z,10.00
2018-01-06T23:35:46.658Z,10.07
2018-01-06T23:38:14.129Z,10.13
2018-01-06T23:40:51.334Z,9.13
2018-01-06T23:43:18.843Z,9.53
2018-01-06T23:45:46.409Z,10.07
2018-01-06T23:48:13.946Z,10.63
2018-01-06T23:50:41.425Z,10.87
2018-01-06T23:53:08.963Z,10.73
2018-01-06T23:55:36.457Z,9.90
2018-01-06T23:58:03.934Z,11.00
